createdAt,value
2022-12-14T00:01:37.084Z,14.70
2022-12-14T00:04:04.108Z,16.17
2022-12-14T00:06:33.868Z,16.45
2022-12-14T00:09:03.797Z,17.13
2022-12-14T00:11:33.878Z,17.67
2022-12-14T00:14:03.455Z,17.75
2022-12-14T00:16:33.538Z,17.60
2022-12-14T00:19:02.423Z,16.88
2022-12-14T00:21:29.483Z,18.42
2022-12-14T00:23:58.213Z,18.33
2022-12-14T00:26:32.621Z,17.25
2022-12-14T00:29:02.042Z,17.23
2022-12-14T00:31:30.208Z,17.35
2022-12-14T00:33:56.992Z,17.77
2022-12-14T00:36:24.280Z,18.55
2022-12-14T00:38:51.016Z,18.05
2022-12-14T00:41:17.784Z,16.55
2022-12-14T00:43:44.524Z,18.10
2022-12-14T00:46:11.351Z,16.75
2022-12-14T00:48:38.189Z,17.75
2022-12-14T00:51:05.180Z,16.95
2022-12-14T00:53:31.901Z,17.73
2022-12-14T00:56:07.137Z,18.30
2022-12-14T00:58:34.129Z,17.83
2022-12-14T01:01:07.659Z,18.05
2022-12-14T01:03:34.962Z,16.40
2022-12-14T01:06:02.537Z,16.33
2022-12-14T01:08:36.390Z,17.60
2022-12-14T01:13:32.519Z,15.45
2022-12-14T01:16:14.470Z,16.55
2022-12-14T01:18:43.231Z,15.82
2022-12-14T01:21:17.169Z,16.90
2022-12-14T01:26:17.733Z,14.68
2022-12-14T01:28:46.927Z,14.70
2022-12-14T01:31:17.129Z,15.98
2022-12-14T01:33:45.124Z,15.13
2022-12-14T01:36:16.673Z,15.57
2022-12-14T01:38:44.576Z,16.30
2022-12-14T01:41:27.416Z,16.73
2022-12-14T01:44:02.982Z,16.10
2022-12-14T01:47:07.416Z,17.60
2022-12-14T01:50:04.311Z,15.93
2022-12-14T01:52:40.821Z,15.15
2022-12-14T01:55:24.178Z,16.38
2022-12-14T01:58:10.434Z,16.00
2022-12-14T02:00:38.294Z,16.42
2022-12-14T02:03:41.739Z,16.13
2022-12-14T02:06:35.576Z,16.13
2022-12-14T02:09:11.221Z,16.23
2022-12-14T02:11:57.986Z,16.48
2022-12-14T02:14:25.276Z,16.60
2022-12-14T02:16:55.385Z,18.08
2022-12-14T02:19:22.097Z,16.80
2022-12-14T02:22:16.684Z,17.30
2022-12-14T02:27:55.825Z,15.40
2022-12-14T02:30:28.469Z,15.55
2022-12-14T02:33:32.560Z,15.50
2022-12-14T02:36:24.973Z,16.02
2022-12-14T02:39:09.517Z,15.57
2022-12-14T02:42:14.880Z,15.55
2022-12-14T02:45:07.498Z,15.23
2022-12-14T02:47:48.226Z,15.48
2022-12-14T02:50:39.656Z,15.88
2022-12-14T02:53:48.754Z,14.90
2022-12-14T02:56:25.527Z,14.43
2022-12-14T02:58:53.661Z,15.30
2022-12-14T03:01:27.572Z,15.30
2022-12-14T03:03:55.675Z,15.80
2022-12-14T03:06:28.327Z,15.60
2022-12-14T03:09:04.731Z,16.50
2022-12-14T03:11:53.983Z,16.40
2022-12-14T03:14:46.404Z,15.70
2022-12-14T03:17:24.928Z,15.60
2022-12-14T03:19:59.662Z,16.85
2022-12-14T03:22:41.933Z,15.95
2022-12-14T03:25:20.557Z,16.00
2022-12-14T03:27:58.494Z,16.58
2022-12-14T03:30:57.732Z,16.85
2022-12-14T03:33:20.053Z,18.25
2022-12-14T03:35:59.791Z,17.00
2022-12-14T03:38:39.709Z,18.90
2022-12-14T03:41:21.645Z,17.05
2022-12-14T03:44:22.646Z,16.92
2022-12-14T03:47:48.834Z,17.40
2022-12-14T03:50:40.125Z,17.13
2022-12-14T03:53:32.883Z,15.75
2022-12-14T03:56:05.546Z,16.25
2022-12-14T03:59:11.945Z,16.42
2022-12-14T04:02:15.545Z,16.90
2022-12-14T04:05:00.897Z,16.75
2022-12-14T04:07:42.342Z,16.23
2022-12-14T04:10:48.142Z,15.45
2022-12-14T04:13:43.315Z,15.48
2022-12-14T04:16:41.013Z,15.70
2022-12-14T04:19:20.828Z,14.85
2022-12-14T04:22:04.373Z,16.00
2022-12-14T04:25:34.269Z,15.65
2022-12-14T04:29:09.380Z,15.23
2022-12-14T04:31:42.335Z,14.75
2022-12-14T04:34:15.309Z,14.27
2022-12-14T04:36:51.932Z,15.35
2022-12-14T04:39:37.265Z,15.07
2022-12-14T04:42:08.234Z,15.32
2022-12-14T04:44:44.493Z,16.33
2022-12-14T04:47:17.602Z,15.27
2022-12-14T04:50:18.599Z,14.95
2022-12-14T04:52:55.688Z,16.42
2022-12-14T04:55:52.043Z,16.23
2022-12-14T04:58:26.709Z,15.77
2022-12-14T05:01:48.981Z,16.88
2022-12-14T05:05:10.248Z,15.77
2022-12-14T05:08:19.727Z,16.67
2022-12-14T05:11:10.451Z,15.50
2022-12-14T05:13:49.388Z,15.18
2022-12-14T05:16:21.619Z,14.52
2022-12-14T05:18:49.113Z,15.90
2022-12-14T05:21:35.218Z,16.40
2022-12-14T05:24:03.778Z,17.08
2022-12-14T05:26:32.005Z,16.02
2022-12-14T05:28:58.764Z,16.00
2022-12-14T05:31:25.892Z,16.02
2022-12-14T05:33:52.672Z,16.10
2022-12-14T05:36:19.889Z,16.15
2022-12-14T05:38:46.826Z,15.02
2022-12-14T05:41:14.625Z,15.57
2022-12-14T05:43:41.875Z,17.45
2022-12-14T05:46:11.680Z,16.35
2022-12-14T05:48:38.751Z,15.93
2022-12-14T05:51:11.704Z,16.27
2022-12-14T05:53:39.909Z,11.93
2022-12-14T05:56:09.797Z,14.57
2022-12-14T05:58:38.057Z,15.13
2022-12-14T06:01:12.768Z,15.43
2022-12-14T06:03:43.954Z,15.25
2022-12-14T06:06:13.456Z,14.50
2022-12-14T06:08:46.093Z,15.38
2022-12-14T06:11:22.971Z,15.27
2022-12-14T06:13:50.203Z,14.23
2022-12-14T06:16:23.825Z,13.95
2022-12-14T06:18:55.302Z,14.77
2022-12-14T06:21:26.352Z,15.45
2022-12-14T06:23:55.323Z,13.82
2022-12-14T06:26:23.548Z,14.27
2022-12-14T06:28:50.299Z,13.98
2022-12-14T06:31:21.064Z,14.48
2022-12-14T06:33:48.718Z,15.43
2022-12-14T06:36:25.110Z,14.32
2022-12-14T06:38:53.525Z,15.50
2022-12-14T06:41:22.490Z,15.23
2022-12-14T06:43:49.764Z,17.55
2022-12-14T06:46:20.953Z,16.45
2022-12-14T06:48:53.992Z,16.02
2022-12-14T06:51:23.202Z,15.87
2022-12-14T06:53:57.925Z,15.73
2022-12-14T06:56:27.620Z,15.23
2022-12-14T06:58:55.837Z,15.10
2022-12-14T07:01:25.507Z,15.15
2022-12-14T07:03:55.921Z,15.07
2022-12-14T07:06:25.646Z,15.55
2022-12-14T07:08:57.950Z,15.18
2022-12-14T07:11:26.728Z,15.48
2022-12-14T07:13:54.737Z,16.45
2022-12-14T07:16:25.772Z,16.00
2022-12-14T07:18:55.943Z,15.10
2022-12-14T07:21:23.380Z,15.05
2022-12-14T07:23:52.370Z,15.57
2022-12-14T07:26:25.812Z,16.10
2022-12-14T07:28:54.165Z,16.60
2022-12-14T07:31:26.246Z,20.05
2022-12-14T07:33:59.429Z,20.77
2022-12-14T07:36:29.247Z,20.92
2022-12-14T07:38:57.341Z,18.42
2022-12-14T07:41:30.445Z,17.58
2022-12-14T07:44:00.604Z,18.10
2022-12-14T07:46:29.504Z,17.52
2022-12-14T07:48:58.164Z,18.17
2022-12-14T07:51:35.779Z,17.98
2022-12-14T07:54:06.182Z,17.23
2022-12-14T07:56:38.217Z,17.75
2022-12-14T07:59:08.341Z,17.05
2022-12-14T08:01:37.365Z,16.83
2022-12-14T08:04:14.201Z,15.73
2022-12-14T08:06:41.318Z,16.02
2022-12-14T08:09:11.490Z,15.90
2022-12-14T08:11:39.597Z,15.07
2022-12-14T08:14:12.275Z,15.30
2022-12-14T08:16:38.987Z,16.02
2022-12-14T08:19:06.867Z,15.88
2022-12-14T08:21:33.727Z,16.90
2022-12-14T08:24:00.618Z,15.95
2022-12-14T08:26:34.922Z,16.23
2022-12-14T08:29:03.559Z,15.18
2022-12-14T08:31:30.968Z,15.52
2022-12-14T08:34:02.140Z,17.95
2022-12-14T08:36:34.422Z,17.52
2022-12-14T08:39:10.201Z,18.50
2022-12-14T08:41:37.006Z,17.80
2022-12-14T08:44:04.942Z,18.33
2022-12-14T08:46:34.949Z,16.52
2022-12-14T08:49:01.912Z,15.00
2022-12-14T08:51:29.269Z,16.10
2022-12-14T08:53:57.375Z,17.45
2022-12-14T08:56:27.767Z,16.60
2022-12-14T08:58:56.339Z,16.85
2022-12-14T09:01:32.380Z,16.90
2022-12-14T09:04:08.661Z,16.73
2022-12-14T09:06:39.359Z,17.73
2022-12-14T09:09:15.633Z,18.60
2022-12-14T09:11:44.726Z,18.88
2022-12-14T09:14:11.579Z,18.20
2022-12-14T09:16:38.479Z,17.95
2022-12-14T09:19:05.968Z,17.90
2022-12-14T09:21:33.720Z,17.35
2022-12-14T09:24:00.643Z,15.95
2022-12-14T09:26:27.885Z,16.02
2022-12-14T09:28:56.879Z,15.38
2022-12-14T09:31:26.978Z,16.92
2022-12-14T09:33:54.944Z,17.75
2022-12-14T09:36:25.522Z,18.80
2022-12-14T09:38:55.252Z,19.00
2022-12-14T09:41:33.967Z,16.58
2022-12-14T09:44:38.539Z,18.08
2022-12-14T09:47:32.945Z,16.48
2022-12-14T09:50:15.318Z,15.23
2022-12-14T09:53:08.340Z,16.40
2022-12-14T09:55:42.334Z,15.05
2022-12-14T09:58:24.321Z,15.73
2022-12-14T10:01:22.968Z,15.45
2022-12-14T10:04:47.836Z,15.95
2022-12-14T10:07:40.645Z,13.55
2022-12-14T10:10:36.621Z,14.23
2022-12-14T10:13:35.189Z,13.82
2022-12-14T10:16:31.667Z,15.70
2022-12-14T10:19:24.192Z,14.23
2022-12-14T10:22:03.878Z,13.88
2022-12-14T10:24:42.446Z,14.50
2022-12-14T10:27:17.664Z,14.73
2022-12-14T10:30:14.458Z,15.68
2022-12-14T10:32:53.961Z,15.10
2022-12-14T10:35:35.721Z,14.90
2022-12-14T10:38:27.586Z,15.55
2022-12-14T10:41:39.661Z,14.57
2022-12-14T10:44:27.939Z,14.82
2022-12-14T10:47:15.298Z,14.57
2022-12-14T10:49:53.034Z,14.93
2022-12-14T10:52:26.264Z,13.85
2022-12-14T10:55:03.513Z,14.48
2022-12-14T10:57:31.058Z,15.13
2022-12-14T11:00:08.384Z,16.33
2022-12-14T11:02:42.612Z,16.25
2022-12-14T11:05:37.232Z,16.48
2022-12-14T11:08:08.472Z,15.23
2022-12-14T11:10:39.547Z,14.40
2022-12-14T11:13:21.369Z,13.57
2022-12-14T11:15:52.517Z,14.02
2022-12-14T11:18:19.872Z,13.82
2022-12-14T11:20:53.235Z,15.57
2022-12-14T11:23:26.453Z,14.98
2022-12-14T11:26:00.322Z,14.05
2022-12-14T11:28:53.220Z,13.85
2022-12-14T11:31:40.146Z,14.45
2022-12-14T11:34:34.601Z,14.80
2022-12-14T11:37:29.201Z,14.30
2022-12-14T11:42:28.698Z,13.93
2022-12-14T11:45:32.860Z,15.20
2022-12-14T11:48:14.378Z,15.98
2022-12-14T11:50:47.776Z,16.38
2022-12-14T11:53:18.732Z,14.43
2022-12-14T11:55:59.749Z,13.32
2022-12-14T11:58:32.390Z,14.02
2022-12-14T12:01:19.325Z,13.15
2022-12-14T12:03:51.047Z,13.85
2022-12-14T12:06:30.068Z,15.68
2022-12-14T12:09:00.451Z,14.27
2022-12-14T12:11:31.742Z,13.45
2022-12-14T12:14:34.526Z,15.73
2022-12-14T12:17:01.535Z,14.57
2022-12-14T12:19:36.465Z,15.15
2022-12-14T12:22:05.341Z,13.93
2022-12-14T12:24:41.644Z,12.60
2022-12-14T12:27:19.929Z,13.35
2022-12-14T12:29:56.871Z,13.48
2022-12-14T12:32:34.566Z,14.05
2022-12-14T12:35:14.507Z,14.07
2022-12-14T12:38:06.424Z,14.30
2022-12-14T12:40:41.521Z,13.80
2022-12-14T12:43:35.145Z,14.48
2022-12-14T12:46:32.949Z,12.73
2022-12-14T12:49:12.583Z,13.70
2022-12-14T12:51:56.074Z,12.65
2022-12-14T12:54:37.714Z,13.00
2022-12-14T12:57:08.302Z,13.85
2022-12-14T12:59:50.306Z,15.20
2022-12-14T13:02:31.291Z,15.45
2022-12-14T13:05:29.152Z,15.85
2022-12-14T13:08:22.451Z,13.95
2022-12-14T13:13:48.332Z,15.93
2022-12-14T13:16:31.607Z,15.43
2022-12-14T13:22:15.119Z,12.82
2022-12-14T13:24:47.182Z,13.93
2022-12-14T13:28:03.803Z,15.02
2022-12-14T13:31:20.278Z,13.30
2022-12-14T13:34:29.515Z,13.85
2022-12-14T13:37:26.897Z,13.30
2022-12-14T13:41:01.840Z,11.73
2022-12-14T13:43:48.541Z,15.32
2022-12-14T13:46:29.243Z,14.50
2022-12-14T13:49:16.838Z,16.70
2022-12-14T13:51:50.052Z,15.07
2022-12-14T13:54:43.026Z,15.32
2022-12-14T13:57:21.140Z,14.90
2022-12-14T13:59:54.766Z,14.48
2022-12-14T14:02:38.524Z,14.77
2022-12-14T14:05:18.784Z,17.17
2022-12-14T14:07:53.582Z,17.02
2022-12-14T14:10:39.743Z,17.33
2022-12-14T14:13:28.118Z,16.58
2022-12-14T14:16:30.373Z,15.60
2022-12-14T14:19:09.225Z,15.55
2022-12-14T14:22:22.153Z,15.07
2022-12-14T14:24:58.173Z,13.98
2022-12-14T14:27:50.821Z,15.00
2022-12-14T14:30:33.705Z,14.70
2022-12-14T14:33:35.938Z,14.40
2022-12-14T14:35:49.835Z,13.70
2022-12-14T14:38:27.922Z,13.13
2022-12-14T14:41:19.270Z,12.88
2022-12-14T14:43:59.678Z,12.85
2022-12-14T14:46:45.847Z,13.70
2022-12-14T14:49:36.090Z,14.25
2022-12-14T14:52:40.017Z,14.65
2022-12-14T14:58:35.363Z,14.50
2022-12-14T15:01:21.140Z,14.65
2022-12-14T15:03:59.301Z,14.30
2022-12-14T15:06:38.935Z,15.32
2022-12-14T15:09:20.205Z,14.57
2022-12-14T15:11:52.732Z,15.13
2022-12-14T15:14:48.203Z,14.68
2022-12-14T15:17:23.483Z,15.60
2022-12-14T15:19:52.463Z,16.05
2022-12-14T15:22:27.174Z,16.98
2022-12-14T15:24:58.996Z,16.08
2022-12-14T15:27:32.672Z,15.30
2022-12-14T15:30:27.936Z,16.55
2022-12-14T15:33:23.628Z,16.35
2022-12-14T15:35:52.674Z,16.77
2022-12-14T15:38:27.752Z,16.40
2022-12-14T15:41:03.231Z,16.08
2022-12-14T15:43:30.914Z,15.00
2022-12-14T15:46:04.172Z,16.55
2022-12-14T15:48:35.212Z,12.25
2022-12-14T15:51:06.846Z,16.88
2022-12-14T15:53:50.235Z,16.95
2022-12-14T15:56:36.848Z,16.90
2022-12-14T15:59:15.654Z,17.42
2022-12-14T16:01:53.719Z,17.25
2022-12-14T16:04:27.589Z,17.90
2022-12-14T16:07:09.100Z,17.48
2022-12-14T16:09:43.906Z,17.15
2022-12-14T16:12:45.301Z,17.95
2022-12-14T16:15:21.493Z,19.38
2022-12-14T16:17:53.660Z,19.52
2022-12-14T16:20:38.300Z,20.20
2022-12-14T16:23:13.736Z,19.80
2022-12-14T16:26:13.987Z,19.42
2022-12-14T16:28:41.396Z,20.52
2022-12-14T16:31:20.358Z,21.02
2022-12-14T16:34:05.766Z,20.70
2022-12-14T16:36:37.949Z,22.05
2022-12-14T16:39:16.433Z,21.30
2022-12-14T16:41:51.150Z,20.58
2022-12-14T16:44:35.582Z,20.20
2022-12-14T16:47:02.531Z,20.50
2022-12-14T16:49:39.566Z,21.48
2022-12-14T16:52:26.801Z,21.70
2022-12-14T16:55:20.136Z,20.13
2022-12-14T16:57:55.684Z,20.00
2022-12-14T17:00:34.214Z,20.65
2022-12-14T17:03:05.779Z,20.15
2022-12-14T17:05:37.440Z,20.48
2022-12-14T17:08:05.780Z,20.63
2022-12-14T17:10:33.318Z,20.90
2022-12-14T17:13:02.820Z,20.80
2022-12-14T17:15:35.168Z,22.15
2022-12-14T17:18:07.023Z,22.35
2022-12-14T17:20:36.732Z,22.08
2022-12-14T17:23:07.598Z,22.95
2022-12-14T17:25:35.559Z,24.02
2022-12-14T17:28:02.946Z,23.98
2022-12-14T17:30:29.902Z,24.40
2022-12-14T17:32:57.993Z,23.42
2022-12-14T17:35:31.357Z,23.27
2022-12-14T17:37:58.753Z,18.30
2022-12-14T17:40:27.068Z,24.65
2022-12-14T17:42:59.671Z,24.38
2022-12-14T17:45:29.573Z,23.52
2022-12-14T17:47:57.451Z,23.95
2022-12-14T17:50:26.011Z,26.38
2022-12-14T17:52:53.217Z,25.58
2022-12-14T17:55:27.505Z,24.77
2022-12-14T17:57:55.852Z,25.00
2022-12-14T18:00:48.827Z,24.85
2022-12-14T18:03:18.408Z,26.05
2022-12-14T18:05:52.386Z,26.23
2022-12-14T18:10:57.184Z,24.17
2022-12-14T18:13:24.435Z,25.90
2022-12-14T18:15:53.084Z,26.83
2022-12-14T18:18:25.029Z,28.63
2022-12-14T18:20:56.809Z,29.10
2022-12-14T18:23:23.913Z,30.30
2022-12-14T18:25:54.587Z,29.02
2022-12-14T18:28:21.788Z,31.85
2022-12-14T18:30:55.347Z,31.17
2022-12-14T18:33:26.129Z,31.20
2022-12-14T18:35:55.513Z,31.10
2022-12-14T18:38:23.176Z,31.15
2022-12-14T18:40:54.279Z,30.73
2022-12-14T18:43:28.036Z,30.10
2022-12-14T18:45:56.593Z,29.15
2022-12-14T18:48:25.150Z,29.13
2022-12-14T18:50:54.844Z,31.50
2022-12-14T18:53:24.653Z,29.35
2022-12-14T18:55:51.831Z,29.92
2022-12-14T18:58:26.552Z,28.15
2022-12-14T19:00:57.727Z,28.38
2022-12-14T19:03:26.133Z,29.02
2022-12-14T19:06:26.779Z,27.42
2022-12-14T19:08:51.390Z,27.25
2022-12-14T19:11:35.649Z,28.85
2022-12-14T19:16:29.332Z,25.95
2022-12-14T19:18:56.933Z,25.33
2022-12-14T19:21:25.439Z,28.42
2022-12-14T19:23:52.186Z,28.67
2022-12-14T19:26:18.950Z,29.92
2022-12-14T19:28:45.700Z,29.75
2022-12-14T19:31:12.624Z,31.13
2022-12-14T19:33:39.495Z,29.83
2022-12-14T19:36:08.046Z,30.05
2022-12-14T19:38:36.907Z,28.42
2022-12-14T19:41:11.357Z,30.40
2022-12-14T19:43:38.479Z,30.02
2022-12-14T19:46:07.896Z,29.15
2022-12-14T19:48:38.185Z,30.20
2022-12-14T19:51:12.438Z,29.05
2022-12-14T19:53:42.953Z,26.35
2022-12-14T19:56:11.350Z,27.40
2022-12-14T19:58:38.099Z,27.70
2022-12-14T20:01:14.121Z,27.42
2022-12-14T20:03:41.006Z,29.20
2022-12-14T20:06:08.419Z,27.88
2022-12-14T20:08:36.523Z,26.90
2022-12-14T20:11:09.491Z,28.88
2022-12-14T20:13:36.989Z,27.23
2022-12-14T20:16:04.169Z,30.23
2022-12-14T20:18:31.664Z,26.80
2022-12-14T20:21:08.233Z,29.80
2022-12-14T20:23:37.544Z,30.23
2022-12-14T20:26:16.086Z,32.10
2022-12-14T20:28:43.339Z,30.92
2022-12-14T20:31:10.731Z,31.67
2022-12-14T20:33:38.846Z,32.85
2022-12-14T20:36:06.663Z,31.52
2022-12-14T20:38:33.989Z,33.10
2022-12-14T20:41:13.776Z,32.22
2022-12-14T20:43:45.371Z,31.02
2022-12-14T20:46:40.771Z,31.58
2022-12-14T20:49:14.505Z,30.05
2022-12-14T20:51:42.531Z,29.77
2022-12-14T20:54:14.482Z,29.35
2022-12-14T20:56:42.207Z,30.08
2022-12-14T20:59:10.343Z,28.95
2022-12-14T21:01:39.167Z,30.08
2022-12-14T21:04:07.166Z,29.38
2022-12-14T21:06:39.205Z,29.75
2022-12-14T21:09:09.542Z,29.48
2022-12-14T21:12:03.144Z,27.30
2022-12-14T21:14:38.021Z,28.13
2022-12-14T21:17:06.087Z,28.85
2022-12-14T21:19:33.634Z,29.88
2022-12-14T21:22:00.388Z,30.30
2022-12-14T21:25:01.040Z,29.27
2022-12-14T21:27:28.334Z,30.20
2022-12-14T21:29:55.109Z,29.45
2022-12-14T21:32:22.765Z,28.90
2022-12-14T21:34:49.883Z,29.50
2022-12-14T21:37:17.194Z,29.48
2022-12-14T21:39:49.037Z,29.65
2022-12-14T21:42:20.679Z,29.17
2022-12-14T21:44:50.171Z,29.83
2022-12-14T21:47:29.738Z,28.90
2022-12-14T21:49:57.203Z,29.95
2022-12-14T21:52:28.014Z,29.60
2022-12-14T21:54:55.961Z,29.90
2022-12-14T21:57:49.921Z,28.20
2022-12-14T22:00:18.322Z,30.90
2022-12-14T22:02:45.240Z,33.10
2022-12-14T22:05:12.170Z,33.55
2022-12-14T22:07:39.350Z,34.45
2022-12-14T22:10:06.584Z,32.97
2022-12-14T22:12:33.326Z,32.05
2022-12-14T22:15:00.118Z,31.33
2022-12-14T22:17:26.909Z,31.23
2022-12-14T22:19:55.065Z,31.50
2022-12-14T22:22:22.209Z,30.33
2022-12-14T22:24:49.879Z,30.70
2022-12-14T22:27:16.967Z,30.45
2022-12-14T22:29:43.712Z,31.45
2022-12-14T22:32:12.350Z,31.63
2022-12-14T22:34:39.236Z,30.55
2022-12-14T22:37:06.233Z,30.98
2022-12-14T22:39:33.113Z,31.70
2022-12-14T22:42:00.217Z,31.50
2022-12-14T22:44:27.123Z,31.10
2022-12-14T22:46:53.888Z,30.13
2022-12-14T22:49:20.692Z,31.98
2022-12-14T22:51:47.567Z,29.67
2022-12-14T22:54:26.745Z,31.35
2022-12-14T22:57:06.245Z,29.60
2022-12-14T22:59:54.125Z,30.77
2022-12-14T23:02:21.125Z,30.40
2022-12-14T23:04:50.113Z,31.55
2022-12-14T23:07:17.245Z,29.58
2022-12-14T23:10:02.966Z,31.58
2022-12-14T23:12:48.646Z,32.13
2022-12-14T23:15:34.241Z,31.92
2022-12-14T23:18:25.465Z,31.05
2022-12-14T23:21:12.632Z,32.40
2022-12-14T23:24:03.759Z,37.53
2022-12-14T23:26:50.157Z,39.80
2022-12-14T23:29:35.786Z,36.42
2022-12-14T23:32:21.169Z,35.08
2022-12-14T23:35:06.674Z,33.15
2022-12-14T23:37:51.980Z,33.92
2022-12-14T23:40:37.885Z,33.20
2022-12-14T23:43:36.626Z,30.30
2022-12-14T23:46:23.985Z,30.70
2022-12-14T23:49:15.366Z,31.50
2022-12-14T23:52:01.824Z,30.48
2022-12-14T23:54:47.429Z,32.22
2022-12-14T23:57:32.882Z,31.63
